Flight Track Log - Related Links

Times and Time Zones

All times are in EDT time to prevent confusion due to time zone crossing. See the UAL4108 flight status page for this flight to view local times or setup timezone preferences in your user account.

Time Position Orientation Groundspeed Altitude Reporting Facility
EDT Latitude Longitude Course Direction KTS MPH feet Rate Location/Type
Tue 08:29:47 PM 32.8000 -96.7833 129° Southeast 219 252 3,400  Level Dallas / Fort Worth TRACON
Tue 08:30:47 PM 32.7500 -96.7333 140° Southeast 246 283 5,600 1,926 Climbing Dallas / Fort Worth TRACON
Tue 08:32:29 PM 32.6250 -96.7572 189° South 277 319 8,600 1,741 Climbing Fort Worth Center
Tue 08:33:29 PM 32.5561 -96.7700 189° South 277 319 10,300 1,550 Climbing Fort Worth Center
Tue 08:34:29 PM 32.4622 -96.7856 188° South 301 346 11,700 1,250 Climbing Fort Worth Center
Tue 08:35:29 PM 32.3767 -96.8008 189° South 337 388 12,800 1,300 Climbing Fort Worth Center
Tue 08:36:29 PM 32.2703 -96.8089 184° South 353 406 14,300 1,438 Climbing Fort Worth Center
Tue 08:37:30 PM 32.1742 -96.7753 164° South 353 406 15,700 1,350 Climbing Fort Worth Center
Tue 08:38:29 PM 32.0781 -96.7392 162° South 358 412 17,000 1,210 Climbing Fort Worth Center
Tue 08:39:29 PM 31.9775 -96.7006 162° South 363 418 18,100 1,000 Climbing Fort Worth Center
Tue 08:40:29 PM 31.8897 -96.6669 162° South 363 418 19,000 1,032 Climbing Fort Worth Center
Tue 08:41:02 PM 31.8219 -96.6375 160° South 385 443 19,700 1,074 Climbing Houston Center
Tue 08:42:04 PM 31.7181 -96.5947 161° South 390 449 20,700 629 Climbing Houston Center
Tue 08:43:06 PM 31.6100 -96.5508 161° South 402 463 21,000 146 Climbing Houston Center
Tue 08:44:07 PM 31.4969 -96.5050 161° South 420 483 21,000  Level Houston Center
Tue 08:45:09 PM 31.3811 -96.4575 161° South 432 497 21,000  Level Houston Center
Tue 08:46:11 PM 31.2758 -96.3900 151° Southeast 424 488 21,000  Level Houston Center
Tue 08:47:12 PM 31.1700 -96.3211 151° Southeast 427 491 21,000  Level Houston Center
Tue 08:48:14 PM 31.0656 -96.2533 151° Southeast 425 489 21,000 -435 Level Houston Center
Tue 08:49:16 PM 30.9592 -96.1844 151° Southeast 430 495 20,100 -1,366 Descending Houston Center
Tue 08:50:17 PM 30.8553 -96.1178 151° Southeast 423 487 18,200 -1,939 Descending Houston Center
Tue 08:50:55 PM 30.7819 -96.0725 152° Southeast 417 480 16,900 -2,000 Descending Houston Center
Tue 08:52:20 PM 30.6567 -95.9928 151° Southeast 404 465 14,100 -1,959 Descending Houston Center
Tue 08:53:22 PM 30.5675 -95.9342 150° Southeast 376 433 12,100 -1,846 Descending Houston Center
Tue 08:54:30 PM 30.4642 -95.8689 151° Southeast 311 358 10,100 -1,016 Descending Houston Center
Tue 08:55:26 PM 30.4083 -95.8167 141° Southeast 291 335 10,000 -359 Descending Houston Center
Tue 08:56:27 PM 30.3308 -95.8008 170° South 291 335 9,400 -787 Descending Houston Center
Tue 08:57:28 PM 30.2517 -95.7939 176° South 287 330 8,400 -976 Descending Houston Center
Tue 08:58:30 PM 30.1750 -95.7881 176° South 278 320 7,400 -1,016 Descending Houston Center
Tue 08:59:32 PM 30.0994 -95.7814 176° South 275 316 6,300 -1,565 Descending Houston Center
Tue 09:00:48 PM 30.0175 -95.7300 151° Southeast 254 292 3,800 -1,610 Descending Houston Center
Tue 09:01:35 PM 30.0069 -95.6711 102° East 251 289 3,000 -444 Descending Houston Center
Tue 09:02:36 PM 30.0075 -95.5906 90° East 251 289 3,000 -49 Level Houston Center
Tue 09:03:38 PM 30.0078 -95.5114 90° East 250 288 2,900 -97 Descending Houston Center

Login

Don't have an account? Register now (free) for customized features, flight alerts, and more!